Terminal Aerodrome Forecast
Issued by NWS

Home | Current Version | Previous Version | Graphics & Text | Print | Product List | Glossary On
Versions: 1 2 3 4 5 6 7 8 9 10 11 12 13 14 15 16
000
FTUS45 KGGW 202320
TAFGDV
TAF
KGDV 202320Z 2100/2124 19012KT P6SM SCT120
     FM210500 21008KT P6SM BKN110 WS020/25035KT
     FM211100 23008KT P6SM SCT060
     FM212100 25013KT P6SM VCSH BKN035=

USA.gov is the U.S. government's official web portal to all federal, state and local government web resources and services.